Overview Statistics Trail Chart Weather Telemetry Raw packets
 

This is the latest recevied weather packets stored in our database for station/object XE2B-20. If no packets are shown the sender has not sent any weather packets the latest 10 day(s).

<< 2 3 4 5 6 7 8 >>
Time Temp. Humidity Pressure Rain* Wind** Luminosity Snow
1788536981 26.67° C 54% 809.4 hPa - - - -
1788535484 26.11° C 53% 809.3 hPa - - - -
1788533984 23.33° C 56% 809.3 hPa - - - -
1788532486 21.11° C 57% 809 hPa - - - -
1788530985 16.67° C 64% 809 hPa - - - -
1788529488 14.44° C 68% 808.8 hPa - - - -
1788527989 13.89° C 69% 808.4 hPa - - - -
1788526492 13.89° C 69% 808.2 hPa - - - -
1788525002 13.33° C 69% 807.7 hPa - - - -
1788523496 13.33° C 69% 807.4 hPa - - - -
1788521998 13.33° C 69% 807.5 hPa - - - -
1788520499 13.33° C 69% 807.8 hPa - - - -
1788519001 13.33° C 70% 808.2 hPa - - - -
1788516004 13.89° C 69% 808.7 hPa - - - -
1788514506 13.89° C 69% 808.9 hPa - - - -
1788513008 15° C 67% 809 hPa - - - -
1788511510 15° C 67% 809 hPa - - - -
1788510011 15° C 67% 809 hPa - - - -
1788508512 15.56° C 66% 808.6 hPa - - - -
1788507013 15.56° C 65% 808.5 hPa - - - -
1788505514 15.56° C 65% 808.6 hPa - - - -
1788504016 15.56° C 65% 808.9 hPa - - - -
1788502518 16.11° C 63% 808.7 hPa - - - -
1788501018 16.11° C 63% 808.7 hPa - - - -
1788499518 16.11° C 62% 808.5 hPa - - - -

* Rain since midnight (hover to see other rain measurements)
** Current wind speed in m/s (hover to see current wind gust speed)